Map

Track Data

SID SEASON NUMBER BASIN SUBBASIN NAME ISO_TIME NATURE LAT LON WMO_WIND WMO_PRES WMO_AGENCY TRACK_TYPE DIST2LAND LANDFALL IFLAG USA_AGENCY USA_ATCF_ID USA_LAT USA_LON USA_RECORD USA_STATUS USA_WIND USA_PRES USA_SSHS USA_R34_NE USA_R34_SE USA_R34_SW USA_R34_NW USA_R50_NE USA_R50_SE USA_R50_SW USA_R50_NW USA_R64_NE USA_R64_SE USA_R64_SW USA_R64_NW USA_POCI USA_ROCI USA_RMW USA_EYE TOKYO_LAT TOKYO_LON TOKYO_GRADE TOKYO_WIND TOKYO_PRES TOKYO_R50_DIR TOKYO_R50_LONG TOKYO_R50_SHORT TOKYO_R30_DIR TOKYO_R30_LONG TOKYO_R30_SHORT TOKYO_LAND CMA_LAT CMA_LON CMA_CAT CMA_WIND CMA_PRES HKO_LAT HKO_LON HKO_CAT HKO_WIND HKO_PRES NEWDELHI_LAT NEWDELHI_LON NEWDELHI_GRADE NEWDELHI_WIND NEWDELHI_PRES NEWDELHI_CI NEWDELHI_DP NEWDELHI_POCI REUNION_LAT REUNION_LON REUNION_TYPE REUNION_WIND REUNION_PRES REUNION_TNUM REUNION_CI REUNION_RMW REUNION_R34_NE REUNION_R34_SE REUNION_R34_SW REUNION_R34_NW REUNION_R50_NE REUNION_R50_SE REUNION_R50_SW REUNION_R50_NW REUNION_R64_NE REUNION_R64_SE REUNION_R64_SW REUNION_R64_NW BOM_LAT BOM_LON BOM_TYPE BOM_WIND BOM_PRES BOM_TNUM BOM_CI BOM_RMW BOM_R34_NE BOM_R34_SE BOM_R34_SW BOM_R34_NW BOM_R50_NE BOM_R50_SE BOM_R50_SW BOM_R50_NW BOM_R64_NE BOM_R64_SE BOM_R64_SW BOM_R64_NW BOM_ROCI BOM_POCI BOM_EYE BOM_POS_METHOD BOM_PRES_METHOD NADI_LAT NADI_LON NADI_CAT NADI_WIND NADI_PRES WELLINGTON_LAT WELLINGTON_LON WELLINGTON_WIND WELLINGTON_PRES DS824_LAT DS824_LON DS824_STAGE DS824_WIND DS824_PRES TD9636_LAT TD9636_LON TD9636_STAGE TD9636_WIND TD9636_PRES TD9635_LAT TD9635_LON TD9635_WIND TD9635_PRES TD9635_ROCI NEUMANN_LAT NEUMANN_LON NEUMANN_CLASS NEUMANN_WIND NEUMANN_PRES MLC_LAT MLC_LON MLC_CLASS MLC_WIND MLC_PRES USA_GUST BOM_GUST BOM_GUST_PER REUNION_GUST REUNION_GUST_PER USA_SEAHGT USA_SEARAD_NE USA_SEARAD_SE USA_SEARAD_SW USA_SEARAD_NW STORM_SPEED STORM_DIR
1935015S13137 1935 2 SP EA NOT_NAMED 1935-01-14 23:30:00 NR -13.1000 137.000 bom main 34 34 ______O_______ -1 -13.1000 137.000 2 0
1935015S13137 1935 2 SP EA NOT_NAMED 1935-01-15 00:00:00 TS -13.1151 136.990 main 34 31 ______P__O____ -1 -13.1226 136.986 -13.1000 137.000 TC 3 210
1935015S13137 1935 2 SP EA NOT_NAMED 1935-01-15 03:00:00 TS -13.2538 136.906 main 39 34 ______P__P____ -1 -13.2585 136.901 -13.2468 136.913 TC 3 210
1935015S13137 1935 2 SP EA NOT_NAMED 1935-01-15 06:00:00 TS -13.3954 136.824 main 34 22 ______P__P____ -1 -13.3962 136.819 -13.3942 136.829 TC 3 208
1935015S13137 1935 2 SP EA NOT_NAMED 1935-01-15 09:00:00 TS -13.5401 136.749 main 22 0 ______P__P____ -1 -13.5376 136.745 -13.5426 136.753 TC 3 205
1935015S13137 1935 2 SP EA NOT_NAMED 1935-01-15 12:00:00 TS -13.6885 136.684 main 0 0 ______P__P____ -1 -13.6843 136.682 -13.6927 136.687 TC 3 200
1935015S13137 1935 2 SP EA NOT_NAMED 1935-01-15 15:00:00 TS -13.8414 136.633 main 0 0 ______P__P____ -1 -13.8378 136.632 -13.8450 136.635 TC 3 194
1935015S13137 1935 2 SP EA NOT_NAMED 1935-01-15 18:00:00 TS -14.0000 136.600 bom main 0 0 ______O__O____ -1 -14.0000 136.600 -14.0000 136.600 TC 3 188
1935015S13137 1935 2 SP EA NOT_NAMED 1935-01-15 21:00:00 TS -14.1621 136.588 main 0 0 ______P__P____ -1 -14.1684 136.589 -14.1558 136.587 TC 3 0
1935015S13137 1935 2 SP EA NOT_NAMED 1935-01-15 23:30:00 TS -14.2887 136.598 bom main 0 0 ______O__P____ -1 -14.3000 136.600 -14.2774 136.596 TC 3 0
1935015S13137 1935 2 SP EA NOT_NAMED 1935-01-16 00:00:00 TS -14.3113 136.602 main 0 0 ______P__O____ -1 -14.3227 136.605 -14.3000 136.600 TC 2 156
1935015S13137 1935 2 SP EA NOT_NAMED 1935-01-16 03:00:00 TS -14.4236 136.650 main 11 11 ______P__P____ -1 -14.4373 136.654 -14.4100 136.645 TC 2 148
1935015S13137 1935 2 SP EA NOT_NAMED 1935-01-16 06:00:00 TS -14.5065 136.730 main 22 22 ______P__P____ -1 -14.5211 136.736 -14.4918 136.723 TC 2 129
1935015S13137 1935 2 SP EA NOT_NAMED 1935-01-16 09:00:00 TS -14.5673 136.835 main 33 33 ______P__P____ -1 -14.5818 136.844 -14.5528 136.827 TC 2 116
1935015S13137 1935 2 SP EA NOT_NAMED 1935-01-16 12:00:00 TS -14.6138 136.960 main 33 33 ______P__P____ -1 -14.6272 136.969 -14.6003 136.950 TC 3 109
1935015S13137 1935 2 SP EA NOT_NAMED 1935-01-16 15:00:00 TS -14.6533 137.096 main 46 46 ______P__P____ -1 -14.6651 137.107 -14.6414 137.086 TC 3 107
1935015S13137 1935 2 SP EA NOT_NAMED 1935-01-16 18:00:00 TS -14.6934 137.238 main 49 49 ______P__P____ -1 -14.7033 137.249 -14.6835 137.227 TC 3 108
1935015S13137 1935 2 SP EA NOT_NAMED 1935-01-16 21:00:00 TS -14.7418 137.379 main 62 62 ______P__P____ -1 -14.7496 137.390 -14.7340 137.368 TC 3 112
1935015S13137 1935 2 SP EA NOT_NAMED 1935-01-16 23:30:00 TS -14.7938 137.489 bom main 77 77 ______O__P____ -1 -14.8000 137.500 -14.7876 137.479 TC 3 117
1935015S13137 1935 2 SP EA NOT_NAMED 1935-01-17 00:00:00 TS -14.8074 137.510 main 77 77 ______P__O____ -1 -14.8148 137.519 -14.8000 137.500 TC 3 131
1935015S13137 1935 2 SP EA NOT_NAMED 1935-01-17 03:00:00 TS -14.9062 137.625 main 93 93 ______P__P____ -1 -14.9095 137.635 -14.9028 137.615 TC 3 133
1935015S13137 1935 2 SP EA NOT_NAMED 1935-01-17 06:00:00 TS -15.0158 137.738 main 108 108 ______P__P____ -1 -15.0141 137.748 -15.0175 137.727 TC 3 137
1935015S13137 1935 2 SP EA NOT_NAMED 1935-01-17 09:00:00 TS -15.1358 137.845 main 119 113 ______P__P____ -1 -15.1286 137.856 -15.1430 137.835 TC 4 128
1935015S13137 1935 2 SP EA NOT_NAMED 1935-01-17 11:00:00 TS -15.2302 138.023 main 116 109 ______P__PO___ -1 -15.2106 137.923 -15.2323 137.903 TC -15.3000 138.900 7 6 117
1935015S13137 1935 2 SP EA NOT_NAMED 1935-01-17 12:00:00 TS -15.2787 138.137 main 109 104 ______P__PP___ -1 -15.2533 137.955 -15.2785 137.935 TC -15.3300 138.907 7 5 126
1935015S13137 1935 2 SP EA NOT_NAMED 1935-01-17 15:00:00 TS -15.4099 138.277 main 110 101 ______P__PP___ -1 -15.3883 138.043 -15.4228 138.024 TC -15.4215 138.926 7 4 138
1935015S13137 1935 2 SP EA NOT_NAMED 1935-01-17 18:00:00 TS -15.5423 138.384 main 108 93 ______P__PP___ -1 -15.5337 138.117 -15.5752 138.100 TC -15.5179 138.933 7 3 154
1935015S13137 1935 2 SP EA NOT_NAMED 1935-01-17 21:00:00 TS -15.6825 138.418 main 93 87 ______P__PP___ -1 -15.6899 138.174 -15.7346 138.160 TC -15.6232 138.922 7 3 169
1935015S13137 1935 2 SP EA NOT_NAMED 1935-01-17 23:00:00 TS -15.7814 138.430 bom main 87 87 ______O__PO___ -1 -15.8000 138.200 -15.8442 138.189 TC -15.7000 138.900 7 3 0
1935015S13137 1935 2 SP EA NOT_NAMED 1935-01-18 00:00:00 TS -15.8329 138.432 main 87 77 ______P__OP___ -1 -15.8579 138.212 -15.9000 138.200 TC -15.7408 138.884 7 3 0
1935015S13137 1935 2 SP EA NOT_NAMED 1935-01-18 03:00:00 TS -15.9954 138.425 main 77 61 ______P__PP___ -1 -16.0402 138.234 -16.0726 138.226 TC -15.8733 138.814 7 3 186
1935015S13137 1935 2 SP EA NOT_NAMED 1935-01-18 06:00:00 TS -16.1670 138.396 main 61 46 ______P__PP___ -1 -16.2294 138.239 -16.2508 138.233 TC -16.0208 138.717 7 4 190
1935015S13137 1935 2 SP EA NOT_NAMED 1935-01-18 09:00:00 TS -16.3434 138.349 main 46 30 ______P__PP___ -1 -16.4185 138.227 -16.4285 138.224 TC -16.1833 138.594 7 4 196
1935015S13137 1935 2 SP EA NOT_NAMED 1935-01-18 11:00:00 TS -16.4616 138.307 main 30 30 ______P__PO___ -1 -16.5408 138.211 -16.5439 138.210 TC -16.3000 138.500 7 4 198
1935015S13137 1935 2 SP EA NOT_NAMED 1935-01-18 12:00:00 TS -16.5200 138.285 bom main 30 10 ______O__OP___ -1 -16.6000 138.200 -16.6000 138.200 TC -16.3599 138.455 7 4 200
1935015S13137 1935 2 SP EA NOT_NAMED 1935-01-18 15:00:00 TS -16.6840 138.223 main 10 0 ______P__PP___ -1 -16.7543 138.180 -16.7468 138.183 TC -16.5508 138.307 7 4 203
1935015S13137 1935 2 SP EA NOT_NAMED 1935-01-18 18:00:00 TS -16.8483 138.143 main 0 0 ______P__PP___ -1 -16.9033 138.143 -16.8884 138.150 TC -16.7533 138.135 7 4 208
1935015S13137 1935 2 SP EA NOT_NAMED 1935-01-18 21:00:00 TS -17.0184 138.038 main 0 0 ______P__PP___ -1 -17.0582 138.079 -17.0358 138.092 TC -16.9614 137.942 7 4 212
1935015S13137 1935 2 SP EA NOT_NAMED 1935-01-18 23:00:00 TS -17.1377 137.951 main 0 0 ______P__PO___ -1 -17.1704 138.018 -17.1427 138.035 TC -17.1000 137.800 7 4 215
1935015S13137 1935 2 SP EA NOT_NAMED 1935-01-18 23:30:00 TS -17.1667 137.926 994 bom main 0 0 ______O__PP___ -1 -17.2000 138.000 994 4 -17.1710 138.018 TC -17.1292 137.761 7 5 210
1935015S13137 1935 2 SP EA NOT_NAMED 1935-01-19 00:00:00 TS -17.1971 137.901 main 0 0 ______P__OP___ -1 -17.2331 137.981 -17.2000 138.000 TC 40 994 -17.1581 137.722 7 5 220
1935015S13137 1935 2 SP EA NOT_NAMED 1935-01-19 03:00:00 TS -17.3952 137.729 main 0 0 ______P__PP___ -1 -17.4484 137.846 -17.4083 137.872 TC -17.3288 137.468 7 6 221
1935015S13137 1935 2 SP EA NOT_NAMED 1935-01-19 06:00:00 TS -17.6134 137.528 main 0 0 ______P__PP___ -1 -17.6870 137.674 -17.6422 137.705 TC -17.5111 137.204 7 6 221
1935015S13137 1935 2 SP EA NOT_NAMED 1935-01-19 09:00:00 TS -17.8547 137.309 main 0 0 ______P__PP___ -1 -17.9424 137.470 -17.8948 137.506 TC -17.7268 136.952 7 7 220
1935015S13137 1935 2 SP EA NOT_NAMED 1935-01-19 11:00:00 TS -18.0296 137.158 main 0 0 ______P__PO___ -1 -18.1187 137.318 -18.0702 137.357 TC -17.9000 136.800 7 7 219
1935015S13137 1935 2 SP EA NOT_NAMED 1935-01-19 12:00:00 TS -18.1253 137.080 main 0 0 ______P__PP___ -1 -18.2079 137.238 -18.1593 137.279 TC -18.0089 136.724 7 8 217
1935015S13137 1935 2 SP EA NOT_NAMED 1935-01-19 15:00:00 TS -18.4276 136.843 main 0 0 ______P__PP___ -1 -18.4768 136.986 -18.4288 137.029 TC -18.3772 136.515 7 8 216
1935015S13137 1935 2 SP EA NOT_NAMED 1935-01-19 18:00:00 TS -18.7386 136.608 main 0 0 ______P__PP___ -1 -18.7426 136.717 -18.6967 136.762 TC -18.7764 136.345 7 8 215
1935015S13137 1935 2 SP EA NOT_NAMED 1935-01-19 21:00:00 TS -19.0402 136.385 main 0 0 ______P__PP___ -1 -18.9987 136.437 -18.9560 136.484 TC -19.1659 136.233 7 7 215
1935015S13137 1935 2 SP EA NOT_NAMED 1935-01-19 23:00:00 TS -19.2272 136.248 main 0 0 ______P__PO___ -1 -19.1608 136.248 -19.1208 136.295 TC -19.4000 136.200 7 7 215
1935015S13137 1935 2 SP EA NOT_NAMED 1935-01-19 23:30:00 TS -19.2704 136.214 bom main 0 0 ______O__PP___ -1 -19.2000 136.200 -19.1607 136.248 TC -19.4507 136.194 7 6 220
1935015S13137 1935 2 SP EA NOT_NAMED 1935-01-20 00:00:00 TS -19.3128 136.181 main 0 0 ______P__OP___ -1 -19.2386 136.152 -19.2000 136.200 TC -19.5000 136.191 7 6 216
1935015S13137 1935 2 SP EA NOT_NAMED 1935-01-20 03:00:00 TS -19.5502 135.999 main 0 0 ______P__PP___ -1 -19.4581 135.867 -19.4236 135.914 TC -19.7688 136.216 7 6 216
1935015S13137 1935 2 SP EA NOT_NAMED 1935-01-20 06:00:00 TS -19.7611 135.840 main 0 0 ______P__PP___ -1 -19.6592 135.580 -19.6280 135.628 TC -19.9962 136.311 7 5 215
1935015S13137 1935 2 SP EA NOT_NAMED 1935-01-20 09:00:00 TS -19.9495 135.700 main 0 0 ______P__PP___ -1 -19.8443 135.293 -19.8158 135.341 TC -20.1884 136.467 7 4 215
1935015S13137 1935 2 SP EA NOT_NAMED 1935-01-20 11:00:00 TS -20.0644 135.617 main 0 0 ______P__PO___ -1 -19.9602 135.102 -19.9331 135.150 TC -20.3000 136.600 7 4 213
1935015S13137 1935 2 SP EA NOT_NAMED 1935-01-20 12:00:00 TS -20.1191 135.578 main 0 0 ______P__PP___ -1 -20.0162 135.006 -19.9896 135.054 TC -20.3515 136.674 7 4 213
1935015S13137 1935 2 SP EA NOT_NAMED 1935-01-20 15:00:00 TS -20.2739 135.469 main 0 0 ______P__PP___ -1 -20.1775 134.718 -20.1523 134.766 TC -20.4918 136.922 7 5 231
1935015S13137 1935 2 SP EA NOT_NAMED 1935-01-20 18:00:00 TS -20.3995 135.203 main 0 0 ______P__PP___ -1 -20.3308 134.430 -20.3065 134.478 TC -20.6152 137.200 7 6 245
1935015S13137 1935 2 SI WA NOT_NAMED 1935-01-20 21:00:00 TS -20.5235 134.908 main 0 0 ______P__PP___ -1 -20.4788 134.141 -20.4548 134.189 TC -20.7279 137.497 7 7 250
1935015S13137 1935 2 SI WA NOT_NAMED 1935-01-20 23:00:00 TS -20.6012 134.598 main 0 0 ______P__PO___ -1 -20.5758 133.948 -20.5518 133.996 TC -20.8000 137.700 7 22 266
1935015S13137 1935 2 SI WA NOT_NAMED 1935-01-20 23:30:00 TS -20.5839 133.932 bom main 0 0 ______O__P____ -1 -20.6000 133.900 -20.5759 133.948 TC 7 39 270
1935015S13137 1935 2 SI WA NOT_NAMED 1935-01-21 00:00:00 TS -20.6000 133.900 main 0 _________O____ -1 -20.6000 133.900 TC 7 4 246

Digital Typhoon Data and Search

About IBTrACS Database

This database is a web-friendly format of International Best Track Archive for Climate Stewardship (IBTrACS), a global best track data archive curated by NOAA dating back to 1842.

Updated: 2021-12-06